Time;durP1;ratioP1;P1;durP2;ratioP2;P2;SDS_P1;SDS_P2;PMS_P1;PMS_P2;Temp;Humidity;BMP_temperature;BMP_pressure;BME280_temperature;BME280_humidity;BME280_pressure;Samples;Min_cycle;Max_cycle;Signal;HPM_P1;HPM_P2
2024/04/02 00:00:35;;;;;;;27.43;18.27;;;;;22.60;99126.00;;;;2034135;28;20579;-57
2024/04/02 00:01:35;;;;;;;28.97;18.97;;;;;22.60;99144.00;;;;2044195;28;20633;-57
2024/04/02 00:02:36;;;;;;;28.67;17.80;;;;;22.60;99138.00;;;;2043711;28;20216;-57
2024/04/02 00:03:36;;;;;;;26.10;17.33;;;;;22.50;99132.00;;;;2043083;28;20216;-57
2024/04/02 00:04:37;;;;;;;26.43;18.10;;;;;22.50;99131.00;;;;2038920;28;20282;-57
2024/04/02 00:05:37;;;;;;;26.40;17.53;;;;;22.50;99116.00;;;;2034376;28;20212;-57
2024/04/02 00:06:38;;;;;;;25.40;16.67;;;;;22.50;99135.00;;;;2051855;28;20398;-58
2024/04/02 00:07:38;;;;;;;24.47;17.70;;;;;22.50;99134.00;;;;2045008;28;20977;-57
2024/04/02 00:08:39;;;;;;;28.30;16.97;;;;;22.50;99125.00;;;;2045281;28;21082;-57
2024/04/02 00:09:40;;;;;;;24.73;17.50;;;;;22.50;99127.00;;;;2043457;28;20224;-58
2024/04/02 00:10:40;;;;;;;24.57;16.40;;;;;22.50;99127.00;;;;2034368;28;20295;-58
2024/04/02 00:11:40;;;;;;;26.23;15.93;;;;;22.50;99124.00;;;;2046329;28;20228;-57
2024/04/02 00:12:41;;;;;;;27.43;17.67;;;;;22.50;99124.00;;;;2049454;28;20230;-58
2024/04/02 00:13:41;;;;;;;23.43;15.63;;;;;22.50;99123.00;;;;2047732;28;20224;-57
2024/04/02 00:14:41;;;;;;;23.67;15.80;;;;;22.50;99133.00;;;;2044078;28;20235;-58
2024/04/02 00:15:48;;;;;;;23.47;16.13;;;;;22.50;99131.00;;;;2032161;28;21686;-61
2024/04/02 00:16:48;;;;;;;28.48;16.45;;;;;22.50;99127.00;;;;2050251;28;20330;-57
2024/04/02 00:17:48;;;;;;;22.63;15.17;;;;;22.50;99129.00;;;;2049544;28;20940;-58
2024/04/02 00:18:49;;;;;;;26.93;16.80;;;;;22.50;99133.00;;;;2042846;28;20722;-57
2024/04/02 00:19:49;;;;;;;25.70;16.20;;;;;22.50;99136.00;;;;2043815;28;20216;-58
2024/04/02 00:20:50;;;;;;;23.53;15.67;;;;;22.50;99134.00;;;;2034107;28;20231;-57
2024/04/02 00:21:50;;;;;;;25.73;17.20;;;;;22.50;99133.00;;;;2044209;28;20209;-57
2024/04/02 00:22:51;;;;;;;25.03;16.00;;;;;22.50;99136.00;;;;2044632;28;21029;-57
2024/04/02 00:23:51;;;;;;;23.73;15.70;;;;;22.50;99141.00;;;;2043127;29;20204;-57
2024/04/02 00:24:51;;;;;;;21.73;14.50;;;;;22.50;99136.00;;;;2040671;28;20216;-57
2024/04/02 00:26:01;;;;;;;22.33;15.07;;;;;22.50;99141.00;;;;2033129;28;20208;-58
2024/04/02 00:27:02;;;;;;;25.63;15.63;;;;;22.50;99146.00;;;;2044674;28;21107;-57
2024/04/02 00:28:03;;;;;;;22.27;14.77;;;;;22.50;99145.00;;;;2043650;28;20248;-57
2024/04/02 00:29:03;;;;;;;25.60;15.18;;;;;22.50;99152.00;;;;2043228;28;20287;-57
2024/04/02 00:30:04;;;;;;;21.60;14.60;;;;;22.50;99146.00;;;;2035028;28;20370;-58
2024/04/02 00:31:08;;;;;;;21.83;14.60;;;;;22.50;99139.00;;;;2042275;28;20702;-57
2024/04/02 00:32:08;;;;;;;21.67;13.73;;;;;22.50;99143.00;;;;2043989;28;20956;-57
2024/04/02 00:33:08;;;;;;;21.17;13.97;;;;;22.50;99145.00;;;;2044371;28;20270;-57
2024/04/02 00:34:08;;;;;;;21.10;13.03;;;;;22.50;99149.00;;;;2043578;28;20227;-58
2024/04/02 00:35:09;;;;;;;18.50;13.10;;;;;22.50;99141.00;;;;2035263;28;20282;-58
2024/04/02 00:36:09;;;;;;;22.57;14.80;;;;;22.10;99140.00;;;;2043569;28;20219;-57
2024/04/02 00:37:10;;;;;;;23.43;14.20;;;;;22.50;99148.00;;;;2052308;28;20219;-57
2024/04/02 00:38:10;;;;;;;20.13;12.80;;;;;22.40;99149.00;;;;2039189;28;20319;-57
2024/04/02 00:39:10;;;;;;;20.90;13.80;;;;;22.50;99156.00;;;;2044172;28;20272;-58
2024/04/02 00:40:11;;;;;;;19.67;13.07;;;;;22.40;99162.00;;;;2036608;28;20224;-57
2024/04/02 00:41:11;;;;;;;18.37;11.90;;;;;22.40;99158.00;;;;2050256;28;20262;-57
2024/04/02 00:42:11;;;;;;;19.73;12.50;;;;;22.50;99157.00;;;;2052403;28;20291;-57
2024/04/02 00:43:12;;;;;;;20.63;13.17;;;;;22.50;99157.00;;;;2051354;28;20218;-57
2024/04/02 00:44:12;;;;;;;18.00;11.90;;;;;22.40;99173.00;;;;2050341;28;20283;-58
2024/04/02 00:45:12;;;;;;;19.40;12.27;;;;;22.40;99157.00;;;;2041872;28;20641;-58
2024/04/02 00:46:13;;;;;;;16.00;12.23;;;;;22.40;99156.00;;;;2054275;28;20667;-59
2024/04/02 00:47:13;;;;;;;16.63;12.13;;;;;22.50;99156.00;;;;2043667;28;20299;-57
2024/04/02 00:48:14;;;;;;;23.33;11.90;;;;;22.50;99154.00;;;;2042833;28;20222;-57
2024/04/02 00:49:14;;;;;;;17.30;12.30;;;;;22.40;99153.00;;;;2040858;28;20307;-57
2024/04/02 00:50:14;;;;;;;19.10;12.20;;;;;22.40;99157.00;;;;2030483;28;20218;-58
2024/04/02 00:51:15;;;;;;;20.10;12.13;;;;;22.40;99160.00;;;;2050451;28;20223;-58
2024/04/02 00:52:15;;;;;;;17.03;10.93;;;;;22.50;99200.00;;;;2047207;28;20625;-58
2024/04/02 00:53:15;;;;;;;19.83;12.03;;;;;22.40;99106.00;;;;2056784;28;20780;-58
2024/04/02 00:54:16;;;;;;;17.63;11.33;;;;;22.40;99160.00;;;;2038253;28;20866;-58
2024/04/02 00:55:16;;;;;;;20.63;12.80;;;;;22.40;99160.00;;;;2029155;28;20236;-57
2024/04/02 00:56:17;;;;;;;18.50;12.37;;;;;22.40;99166.00;;;;2051212;28;20943;-58
2024/04/02 00:57:18;;;;;;;21.23;12.00;;;;;22.40;99159.00;;;;2042985;28;20220;-58
2024/04/02 00:58:18;;;;;;;18.90;10.73;;;;;22.40;99161.00;;;;2035401;29;20248;-58
2024/04/02 00:59:18;;;;;;;18.60;11.60;;;;;22.40;99168.00;;;;2035232;29;20248;-58
2024/04/02 01:00:19;;;;;;;19.13;11.73;;;;;22.40;99144.00;;;;2020814;29;20337;-57
2024/04/02 01:01:19;;;;;;;17.00;11.33;;;;;22.40;99161.00;;;;2021473;29;20266;-58
2024/04/02 01:02:19;;;;;;;13.90;10.63;;;;;22.40;99166.00;;;;2037705;29;20224;-58
2024/04/02 01:03:20;;;;;;;14.10;9.90;;;;;22.40;99164.00;;;;2041639;28;20228;-58
2024/04/02 01:04:20;;;;;;;16.73;10.00;;;;;22.40;99170.00;;;;2048779;28;20220;-58
2024/04/02 01:05:20;;;;;;;14.97;9.77;;;;;22.40;99164.00;;;;2018965;29;20277;-58
2024/04/02 01:06:21;;;;;;;15.63;10.43;;;;;22.40;99168.00;;;;2034904;29;20224;-58
2024/04/02 01:07:21;;;;;;;17.30;10.50;;;;;22.40;99163.00;;;;2051028;28;20215;-58
2024/04/02 01:08:21;;;;;;;16.50;10.50;;;;;22.40;99172.00;;;;2051856;28;20230;-57
2024/04/02 01:09:22;;;;;;;14.57;10.40;;;;;22.40;99169.00;;;;2051355;28;20253;-58
2024/04/02 01:10:22;;;;;;;14.63;10.10;;;;;22.40;99169.00;;;;2042346;28;20242;-58
2024/04/02 01:11:23;;;;;;;16.93;10.77;;;;;22.40;99190.00;;;;2050967;28;20220;-58
2024/04/02 01:12:24;;;;;;;15.88;10.25;;;;;22.40;99173.00;;;;2043533;28;20219;-57
2024/04/02 01:13:24;;;;;;;16.60;10.43;;;;;22.40;99170.00;;;;2042291;28;20208;-58
2024/04/02 01:14:24;;;;;;;18.10;11.17;;;;;22.30;99179.00;;;;2039643;28;20303;-57
2024/04/02 01:15:24;;;;;;;15.43;10.07;;;;;22.40;99171.00;;;;2034016;28;20235;-58
2024/04/02 01:16:25;;;;;;;16.50;10.67;;;;;22.40;99180.00;;;;2041740;28;20212;-57
2024/04/02 01:17:25;;;;;;;16.37;9.93;;;;;22.40;99180.00;;;;2051618;28;20680;-57
2024/04/02 01:18:25;;;;;;;15.73;9.90;;;;;22.40;99177.00;;;;2050920;28;20227;-58
2024/04/02 01:19:26;;;;;;;14.13;9.10;;;;;22.40;99163.00;;;;2050856;28;20237;-58
2024/04/02 01:20:26;;;;;;;14.20;8.70;;;;;22.40;99174.00;;;;2041660;28;20231;-57
2024/04/02 01:21:27;;;;;;;15.03;9.70;;;;;22.40;99172.00;;;;2047172;28;20221;-58
2024/04/02 01:22:27;;;;;;;15.00;8.90;;;;;22.30;99183.00;;;;2044496;28;20252;-58
2024/04/02 01:23:27;;;;;;;13.43;9.30;;;;;22.30;99181.00;;;;2045853;28;20246;-58
2024/04/02 01:24:28;;;;;;;15.10;9.27;;;;;22.30;99180.00;;;;2043155;28;20219;-58
2024/04/02 01:25:28;;;;;;;16.53;9.67;;;;;22.30;99182.00;;;;2033190;28;20232;-57
2024/04/02 01:26:29;;;;;;;14.77;9.50;;;;;22.30;99180.00;;;;2040589;28;20224;-57
2024/04/02 01:27:29;;;;;;;11.80;8.43;;;;;22.30;99174.00;;;;2041752;28;20224;-58
2024/04/02 01:28:29;;;;;;;13.50;8.67;;;;;22.30;99181.00;;;;2041380;28;20226;-58
2024/04/02 01:29:30;;;;;;;14.90;9.70;;;;;22.20;99176.00;;;;2051192;28;20230;-58
2024/04/02 01:30:30;;;;;;;14.27;8.40;;;;;22.30;99174.00;;;;2041554;28;20685;-58
2024/04/02 01:31:30;;;;;;;14.47;9.30;;;;;22.30;99187.00;;;;2049997;28;20290;-58
2024/04/02 01:32:31;;;;;;;10.00;7.53;;;;;22.30;99187.00;;;;2051778;28;20571;-57
2024/04/02 01:33:31;;;;;;;12.73;8.67;;;;;22.30;99194.00;;;;2046322;28;20370;-58
2024/04/02 01:34:33;;;;;;;12.60;7.90;;;;;22.40;99186.00;;;;2045812;28;20229;-58
2024/04/02 01:35:33;;;;;;;13.10;8.75;;;;;22.30;99182.00;;;;2038644;28;20263;-58
2024/04/02 01:36:33;;;;;;;10.20;7.53;;;;;22.30;99178.00;;;;2048491;28;20218;-57
2024/04/02 01:37:34;;;;;;;12.27;8.30;;;;;22.30;99185.00;;;;2045843;28;20231;-58
2024/04/02 01:38:34;;;;;;;14.10;8.73;;;;;22.30;99183.00;;;;2046002;28;20212;-57
2024/04/02 01:39:34;;;;;;;11.60;7.60;;;;;22.30;99180.00;;;;2046905;28;20903;-58
2024/04/02 01:40:35;;;;;;;12.83;7.97;;;;;22.30;99187.00;;;;2035546;28;20219;-58
2024/04/02 01:41:35;;;;;;;12.40;7.87;;;;;22.30;99193.00;;;;2049348;28;20379;-58
2024/04/02 01:42:36;;;;;;;14.33;7.97;;;;;22.30;99182.00;;;;2045582;28;20219;-58
2024/04/02 01:43:36;;;;;;;9.93;7.87;;;;;22.30;99196.00;;;;2048913;28;20904;-58
2024/04/02 01:44:37;;;;;;;13.20;8.13;;;;;22.30;99184.00;;;;2048482;28;20469;-58
2024/04/02 01:45:38;;;;;;;11.43;8.00;;;;;22.30;99198.00;;;;2038953;28;21272;-57
2024/04/02 01:46:38;;;;;;;12.60;7.80;;;;;22.30;99186.00;;;;2052243;28;20239;-58
2024/04/02 01:47:38;;;;;;;11.87;8.33;;;;;22.30;99187.00;;;;2050910;28;20224;-58
2024/04/02 01:48:39;;;;;;;11.47;7.80;;;;;22.30;99196.00;;;;2046493;28;20269;-58
2024/04/02 01:49:39;;;;;;;11.10;7.20;;;;;22.30;99195.00;;;;2050478;28;21127;-58
2024/04/02 01:50:39;;;;;;;11.30;7.43;;;;;22.30;99202.00;;;;2039398;28;20235;-58
2024/04/02 01:51:40;;;;;;;11.57;6.37;;;;;22.30;99200.00;;;;2046691;28;20238;-58
2024/04/02 01:52:40;;;;;;;13.67;8.00;;;;;22.30;99196.00;;;;2050483;28;20219;-58
2024/04/02 01:53:42;;;;;;;9.70;6.33;;;;;22.30;99204.00;;;;2048237;28;20691;-58
2024/04/02 01:54:42;;;;;;;11.68;7.57;;;;;22.30;99196.00;;;;2048011;28;20231;-58
2024/04/02 01:55:46;;;;;;;13.60;7.20;;;;;22.30;99202.00;;;;2038674;28;21054;-58
2024/04/02 01:56:46;;;;;;;9.68;6.50;;;;;22.30;99139.00;;;;2049168;28;20229;-58
2024/04/02 01:57:46;;;;;;;11.60;6.90;;;;;22.30;99204.00;;;;2049473;28;20298;-59
2024/04/02 01:58:47;;;;;;;9.60;6.40;;;;;22.30;99207.00;;;;2044249;28;20841;-58
2024/04/02 01:59:47;;;;;;;10.47;6.83;;;;;22.30;99205.00;;;;2042475;28;20918;-58
2024/04/02 02:00:47;;;;;;;11.17;6.73;;;;;22.30;99203.00;;;;2031529;28;20248;-58
2024/04/02 02:01:48;;;;;;;10.03;6.63;;;;;22.30;99207.00;;;;2039313;28;20220;-58
2024/04/02 02:02:49;;;;;;;12.50;6.80;;;;;22.30;99195.00;;;;2051876;28;20219;-58
2024/04/02 02:03:50;;;;;;;11.77;6.25;;;;;22.30;99207.00;;;;2041043;28;20231;-57
2024/04/02 02:04:50;;;;;;;9.50;6.30;;;;;22.30;99202.00;;;;2038663;28;20224;-59
2024/04/02 02:05:50;;;;;;;12.03;7.53;;;;;22.30;99213.00;;;;2040804;28;20223;-58
2024/04/02 02:06:51;;;;;;;11.07;6.80;;;;;22.30;99203.00;;;;2052475;28;20243;-58
2024/04/02 02:07:51;;;;;;;9.40;6.63;;;;;22.20;99211.00;;;;2047693;28;20604;-57
2024/04/02 02:08:51;;;;;;;11.27;6.63;;;;;22.30;99209.00;;;;2048082;28;20212;-58
2024/04/02 02:09:52;;;;;;;9.30;5.40;;;;;22.20;99217.00;;;;2055144;28;20255;-59
2024/04/02 02:10:55;;;;;;;9.47;6.20;;;;;22.20;99215.00;;;;2043881;28;20229;-58
2024/04/02 02:11:56;;;;;;;10.63;6.53;;;;;22.20;99213.00;;;;2050346;28;20215;-58
2024/04/02 02:12:56;;;;;;;9.43;6.27;;;;;22.30;99213.00;;;;2056896;28;20246;-57
2024/04/02 02:13:59;;;;;;;8.10;5.60;;;;;22.20;99209.00;;;;2050409;28;20215;-58
2024/04/02 02:14:59;;;;;;;9.95;6.05;;;;;22.20;99205.00;;;;2038818;28;20243;-59
2024/04/02 02:16:00;;;;;;;9.90;6.13;;;;;22.20;99210.00;;;;2050608;28;20223;-57
2024/04/02 02:17:00;;;;;;;8.52;6.30;;;;;22.20;99217.00;;;;2044861;28;20643;-57
2024/04/02 02:18:02;;;;;;;10.20;6.27;;;;;22.20;99220.00;;;;2048508;28;20215;-58
2024/04/02 02:19:02;;;;;;;8.23;5.85;;;;;22.20;99218.00;;;;2048747;28;20231;-58
2024/04/02 02:20:04;;;;;;;8.70;5.40;;;;;22.30;99212.00;;;;2037335;28;20213;-58
2024/04/02 02:21:05;;;;;;;9.05;5.40;;;;;22.30;99222.00;;;;2046169;28;20231;-58
2024/04/02 02:22:05;;;;;;;9.37;5.77;;;;;22.20;99222.00;;;;2057410;28;20523;-58
2024/04/02 02:23:05;;;;;;;8.20;5.27;;;;;22.20;99212.00;;;;2051352;28;20290;-57
2024/04/02 02:24:06;;;;;;;8.77;5.50;;;;;22.20;99217.00;;;;2050336;28;20220;-58
2024/04/02 02:25:06;;;;;;;9.37;6.23;;;;;22.20;99222.00;;;;2035056;28;20224;-57
2024/04/02 02:26:06;;;;;;;8.63;5.40;;;;;22.30;99227.00;;;;2045680;28;21082;-57
2024/04/02 02:27:07;;;;;;;8.93;5.97;;;;;22.30;99228.00;;;;2046912;28;20454;-57
2024/04/02 02:28:07;;;;;;;7.63;5.70;;;;;22.20;99116.00;;;;2049300;28;20385;-57
2024/04/02 02:29:07;;;;;;;8.67;4.93;;;;;22.20;99224.00;;;;2051769;28;20610;-58
2024/04/02 02:30:08;;;;;;;9.63;5.30;;;;;22.20;99226.00;;;;2041187;28;20219;-58
2024/04/02 02:31:08;;;;;;;8.50;4.87;;;;;22.20;99217.00;;;;2050886;28;20208;-57
2024/04/02 02:32:09;;;;;;;7.50;5.00;;;;;22.20;99226.00;;;;2051712;28;20231;-56
2024/04/02 02:33:09;;;;;;;6.57;4.90;;;;;22.20;99228.00;;;;2049289;28;20358;-58
2024/04/02 02:34:09;;;;;;;7.77;5.00;;;;;22.20;99225.00;;;;2055708;28;20219;-57
2024/04/02 02:35:10;;;;;;;8.47;5.40;;;;;22.20;99247.00;;;;2039587;28;20212;-58
2024/04/02 02:36:10;;;;;;;8.70;5.37;;;;;22.30;99224.00;;;;2046467;28;20234;-58
2024/04/02 02:37:10;;;;;;;5.97;4.20;;;;;22.20;99224.00;;;;2052780;28;20926;-56
2024/04/02 02:38:11;;;;;;;9.27;5.20;;;;;22.20;99222.00;;;;2051340;28;20219;-58
2024/04/02 02:39:11;;;;;;;8.10;5.27;;;;;22.20;99227.00;;;;2051213;28;20223;-57
2024/04/02 02:40:12;;;;;;;5.97;4.20;;;;;22.20;99229.00;;;;2029639;28;20783;-57
2024/04/02 02:41:12;;;;;;;6.53;4.67;;;;;22.20;99236.00;;;;2037188;28;23239;-56
2024/04/02 02:42:13;;;;;;;8.00;4.33;;;;;22.20;99232.00;;;;2049770;28;20478;-58
2024/04/02 02:43:13;;;;;;;7.77;4.40;;;;;22.20;99234.00;;;;2053174;28;20297;-56
2024/04/02 02:44:14;;;;;;;8.23;4.90;;;;;22.20;99245.00;;;;2051288;28;20567;-58
2024/04/02 02:45:14;;;;;;;7.47;4.63;;;;;22.20;99238.00;;;;2036571;28;20700;-59
2024/04/02 02:46:14;;;;;;;10.10;4.70;;;;;22.20;99234.00;;;;2042444;28;20692;-57
2024/04/02 02:47:15;;;;;;;8.00;4.53;;;;;22.20;99241.00;;;;2053392;28;20227;-59
2024/04/02 02:48:15;;;;;;;8.60;5.47;;;;;22.20;99232.00;;;;2052864;28;20220;-59
2024/04/02 02:49:16;;;;;;;8.37;4.73;;;;;22.20;99238.00;;;;2048784;28;20243;-55
2024/04/02 02:50:16;;;;;;;7.60;4.40;;;;;22.20;99243.00;;;;2048904;28;20234;-57
2024/04/02 02:51:16;;;;;;;7.30;4.77;;;;;22.20;99242.00;;;;2052945;28;20219;-56
2024/04/02 02:52:17;;;;;;;5.93;4.00;;;;;22.20;99233.00;;;;2051857;28;20377;-58
2024/04/02 02:53:17;;;;;;;6.37;4.23;;;;;22.20;99239.00;;;;2053291;28;20250;-59
2024/04/02 02:54:17;;;;;;;9.03;4.97;;;;;22.20;99236.00;;;;2047047;28;20348;-57
2024/04/02 02:55:19;;;;;;;6.30;4.40;;;;;22.20;99235.00;;;;2035939;28;20228;-57
2024/04/02 02:56:20;;;;;;;7.88;4.30;;;;;22.20;99250.00;;;;2051853;28;20219;-56
2024/04/02 02:57:20;;;;;;;5.80;3.90;;;;;22.20;99244.00;;;;2048436;28;20971;-58
2024/04/02 02:58:20;;;;;;;6.93;4.40;;;;;22.20;99243.00;;;;2052692;28;20703;-56
2024/04/02 02:59:22;;;;;;;5.78;4.25;;;;;22.20;99256.00;;;;2051810;28;20456;-57
2024/04/02 03:00:22;;;;;;;7.43;4.50;;;;;22.20;99248.00;;;;2041144;28;20306;-58
2024/04/02 03:01:22;;;;;;;6.67;4.27;;;;;22.20;99252.00;;;;2035442;28;20272;-56
2024/04/02 03:02:23;;;;;;;6.53;3.73;;;;;22.10;99249.00;;;;2044708;28;20243;-57
2024/04/02 03:03:23;;;;;;;5.67;3.90;;;;;22.10;99259.00;;;;2051953;28;20216;-57
2024/04/02 03:04:23;;;;;;;6.27;3.33;;;;;22.20;99255.00;;;;2040654;28;20220;-58
2024/04/02 03:05:24;;;;;;;7.47;4.80;;;;;22.20;99245.00;;;;2037430;28;20220;-59
2024/04/02 03:06:24;;;;;;;5.10;3.30;;;;;22.10;99246.00;;;;2051680;28;20219;-59
2024/04/02 03:07:24;;;;;;;7.83;4.30;;;;;22.10;99253.00;;;;2052666;28;20246;-56
2024/04/02 03:08:25;;;;;;;9.30;3.80;;;;;22.20;99254.00;;;;2050869;28;20210;-58
2024/04/02 03:09:25;;;;;;;7.57;3.80;;;;;22.20;99254.00;;;;2052802;28;20230;-56
2024/04/02 03:10:25;;;;;;;6.97;4.00;;;;;21.80;99247.00;;;;2039740;28;20220;-56
2024/04/02 03:11:26;;;;;;;5.97;3.40;;;;;22.10;99247.00;;;;2045467;28;20307;-58
2024/04/02 03:12:26;;;;;;;6.07;3.43;;;;;22.10;99248.00;;;;2047129;28;20700;-58
2024/04/02 03:13:27;;;;;;;6.67;4.00;;;;;22.10;99230.00;;;;2048106;28;20216;-58
2024/04/02 03:14:29;;;;;;;6.37;3.80;;;;;22.10;99250.00;;;;2055930;28;20215;-61
2024/04/02 03:15:29;;;;;;;5.72;3.40;;;;;22.10;99247.00;;;;2026114;28;21007;-58
2024/04/02 03:16:29;;;;;;;6.37;3.30;;;;;22.10;99241.00;;;;2050646;28;20323;-56
2024/04/02 03:17:30;;;;;;;5.57;3.57;;;;;22.20;99248.00;;;;2052072;28;20230;-56
2024/04/02 03:18:30;;;;;;;6.57;3.40;;;;;22.20;99255.00;;;;2043513;28;20323;-57
2024/04/02 03:19:30;;;;;;;5.07;3.10;;;;;22.20;99250.00;;;;2044021;28;20225;-57
2024/04/02 03:20:37;;;;;;;7.03;3.50;;;;;22.10;99252.00;;;;2040796;28;20231;-57
2024/04/02 03:21:38;;;;;;;5.30;3.38;;;;;22.10;99257.00;;;;2040822;28;20689;-58
2024/04/02 03:22:38;;;;;;;6.07;3.63;;;;;22.10;99254.00;;;;2043596;28;20271;-58
2024/04/02 03:23:38;;;;;;;4.70;3.00;;;;;22.10;99244.00;;;;2048668;28;20763;-58
2024/04/02 03:24:39;;;;;;;6.03;3.50;;;;;22.10;99249.00;;;;2049837;28;20212;-58
2024/04/02 03:25:39;;;;;;;5.10;3.07;;;;;22.10;99252.00;;;;2041785;28;20245;-57
2024/04/02 03:26:40;;;;;;;4.67;2.97;;;;;22.10;99258.00;;;;2052315;28;20350;-57
2024/04/02 03:27:40;;;;;;;5.57;3.60;;;;;22.10;99252.00;;;;2053275;28;20286;-56
2024/04/02 03:28:41;;;;;;;5.37;3.30;;;;;22.20;99262.00;;;;2045152;28;20212;-56
2024/04/02 03:29:41;;;;;;;4.47;2.80;;;;;22.10;99255.00;;;;2051457;28;20271;-57
2024/04/02 03:30:41;;;;;;;5.40;3.00;;;;;22.10;99257.00;;;;2040683;28;20303;-59
2024/04/02 03:31:42;;;;;;;6.17;3.13;;;;;22.10;99253.00;;;;2046900;28;20217;-57
2024/04/02 03:32:42;;;;;;;5.37;3.10;;;;;22.10;99253.00;;;;2051025;28;20220;-57
2024/04/02 03:33:43;;;;;;;5.90;3.60;;;;;22.10;99260.00;;;;2045515;28;20219;-57
2024/04/02 03:34:43;;;;;;;10.40;3.73;;;;;22.10;99254.00;;;;2050192;28;20750;-57
2024/04/02 03:35:43;;;;;;;5.20;3.40;;;;;22.10;99261.00;;;;2042864;28;20227;-58
2024/04/02 03:36:44;;;;;;;5.97;3.00;;;;;22.10;99263.00;;;;2050338;28;20251;-58
2024/04/02 03:37:44;;;;;;;5.20;3.00;;;;;22.10;99259.00;;;;2045541;28;20287;-56
2024/04/02 03:38:45;;;;;;;5.43;2.43;;;;;22.10;99266.00;;;;2051659;28;20211;-56
2024/04/02 03:39:45;;;;;;;6.93;3.37;;;;;22.10;99264.00;;;;2054732;28;20250;-57
2024/04/02 03:40:47;;;;;;;5.73;3.17;;;;;22.10;99261.00;;;;2047475;28;20219;-58
2024/04/02 03:41:48;;;;;;;5.80;3.40;;;;;22.10;99266.00;;;;2048778;28;20227;-58
2024/04/02 03:42:48;;;;;;;5.57;3.00;;;;;22.10;99263.00;;;;2049329;28;20271;-57
2024/04/02 03:43:49;;;;;;;5.10;3.20;;;;;22.10;99272.00;;;;2050132;28;20231;-56
2024/04/02 03:44:49;;;;;;;5.37;2.67;;;;;22.10;99271.00;;;;2050686;28;21057;-56
2024/04/02 03:45:49;;;;;;;6.17;3.37;;;;;22.10;99274.00;;;;2043877;28;21704;-57
2024/04/02 03:46:50;;;;;;;6.67;3.20;;;;;22.10;99275.00;;;;2045281;28;20653;-59
2024/04/02 03:47:50;;;;;;;3.97;2.30;;;;;22.10;99281.00;;;;2054348;28;20218;-58
2024/04/02 03:48:50;;;;;;;4.00;2.33;;;;;22.10;99276.00;;;;2055944;28;20232;-58
2024/04/02 03:49:51;;;;;;;5.67;2.80;;;;;22.10;99280.00;;;;2050236;28;20231;-58
2024/04/02 03:50:51;;;;;;;4.97;3.13;;;;;21.70;99282.00;;;;2041613;28;20223;-57
2024/04/02 03:51:51;;;;;;;5.80;3.40;;;;;22.10;99279.00;;;;2056144;28;20227;-58
2024/04/02 03:52:52;;;;;;;5.73;2.80;;;;;22.10;99286.00;;;;2052773;28;20642;-58
2024/04/02 03:53:52;;;;;;;5.07;2.63;;;;;22.10;99278.00;;;;2052076;28;20588;-58
2024/04/02 03:54:54;;;;;;;5.97;3.40;;;;;22.10;99280.00;;;;2047578;28;20575;-57
2024/04/02 03:56:02;;;;;;;5.00;2.85;;;;;22.10;99284.00;;;;2030013;28;20299;-57
2024/04/02 03:57:02;;;;;;;5.93;3.35;;;;;22.10;99281.00;;;;2041943;28;20579;-58
2024/04/02 03:58:03;;;;;;;4.57;2.57;;;;;22.10;99282.00;;;;2052525;28;20231;-59
2024/04/02 03:59:03;;;;;;;4.13;2.60;;;;;22.00;99283.00;;;;2052911;28;20712;-58
2024/04/02 04:00:04;;;;;;;4.17;2.70;;;;;22.10;99287.00;;;;2043021;28;20211;-57
2024/04/02 04:01:09;;;;;;;6.20;2.90;;;;;22.00;99281.00;;;;2051137;28;20266;-58
2024/04/02 04:02:10;;;;;;;5.05;2.58;;;;;22.10;99276.00;;;;2052255;28;20514;-55
2024/04/02 04:03:10;;;;;;;4.37;2.30;;;;;22.10;99281.00;;;;2050270;28;20208;-56
2024/04/02 04:04:11;;;;;;;4.27;2.67;;;;;22.00;99284.00;;;;2050228;28;20223;-57
2024/04/02 04:05:11;;;;;;;5.70;2.80;;;;;22.10;99284.00;;;;2046578;28;20225;-58
2024/04/02 04:06:11;;;;;;;4.10;2.43;;;;;22.00;99283.00;;;;2057222;28;20238;-58
2024/04/02 04:07:12;;;;;;;3.87;2.17;;;;;22.10;99289.00;;;;2054774;28;20211;-57
2024/04/02 04:08:12;;;;;;;6.03;2.70;;;;;22.00;99279.00;;;;2052181;28;20226;-56
2024/04/02 04:09:12;;;;;;;4.93;2.57;;;;;22.00;99285.00;;;;2052517;28;20727;-56
2024/04/02 04:10:13;;;;;;;5.80;3.00;;;;;22.10;99289.00;;;;2040136;28;20902;-58
2024/04/02 04:11:13;;;;;;;4.17;2.13;;;;;22.00;99285.00;;;;2049336;28;20679;-59
2024/04/02 04:12:13;;;;;;;4.40;2.33;;;;;22.00;99286.00;;;;2051070;28;20747;-57
2024/04/02 04:13:14;;;;;;;4.77;2.27;;;;;22.00;99282.00;;;;2043200;28;20713;-58
2024/04/02 04:14:14;;;;;;;4.73;2.40;;;;;22.00;99288.00;;;;2052109;28;20211;-58
2024/04/02 04:15:14;;;;;;;4.77;2.30;;;;;21.60;99288.00;;;;2038229;28;20263;-57
2024/04/02 04:16:15;;;;;;;4.33;2.47;;;;;22.00;99289.00;;;;2049769;28;20215;-56
2024/04/02 04:17:15;;;;;;;4.20;2.67;;;;;22.00;99287.00;;;;2050437;28;20243;-57
2024/04/02 04:18:15;;;;;;;4.60;2.70;;;;;22.00;99293.00;;;;2047424;28;20215;-57
2024/04/02 04:19:16;;;;;;;3.77;2.20;;;;;22.00;99296.00;;;;2053379;28;20234;-59
2024/04/02 04:20:16;;;;;;;4.53;2.00;;;;;22.00;99290.00;;;;2042902;28;20295;-57
2024/04/02 04:21:16;;;;;;;5.27;2.50;;;;;22.10;99298.00;;;;2045350;28;20239;-56
2024/04/02 04:22:17;;;;;;;4.03;1.87;;;;;22.10;99297.00;;;;2043979;28;20731;-55
2024/04/02 04:23:17;;;;;;;4.70;2.13;;;;;22.00;99298.00;;;;2051971;28;20904;-56
2024/04/02 04:24:18;;;;;;;4.40;2.33;;;;;22.00;99298.00;;;;2051564;28;20295;-56
2024/04/02 04:25:19;;;;;;;3.70;2.30;;;;;22.00;99295.00;;;;2041378;28;20228;-56
2024/04/02 04:26:20;;;;;;;4.03;2.30;;;;;22.00;99296.00;;;;2051523;28;20212;-58
2024/04/02 04:27:20;;;;;;;3.87;2.00;;;;;22.00;99305.00;;;;2049603;28;20219;-58
2024/04/02 04:28:20;;;;;;;5.60;2.20;;;;;22.00;99304.00;;;;2050582;28;20923;-59
2024/04/02 04:29:21;;;;;;;3.57;1.90;;;;;22.00;99300.00;;;;2049345;28;20294;-56
2024/04/02 04:30:21;;;;;;;3.90;1.87;;;;;22.00;99299.00;;;;2042217;28;20231;-56
2024/04/02 04:31:21;;;;;;;3.57;2.00;;;;;22.00;99304.00;;;;2043190;28;20227;-55
2024/04/02 04:32:22;;;;;;;4.57;1.97;;;;;22.00;99298.00;;;;2050087;28;20239;-57
2024/04/02 04:33:23;;;;;;;4.10;2.10;;;;;22.00;99313.00;;;;2045326;28;20225;-57
2024/04/02 04:34:23;;;;;;;3.80;2.20;;;;;22.00;99318.00;;;;2048640;28;20223;-56
2024/04/02 04:35:24;;;;;;;4.47;2.10;;;;;22.00;99305.00;;;;2042170;28;20483;-56
2024/04/02 04:36:24;;;;;;;4.13;2.30;;;;;22.00;99309.00;;;;2052018;28;20680;-57
2024/04/02 04:37:25;;;;;;;4.17;2.23;;;;;22.00;99307.00;;;;2051573;28;20755;-58
2024/04/02 04:38:25;;;;;;;3.80;1.77;;;;;22.00;99306.00;;;;2049774;28;20693;-58
2024/04/02 04:39:26;;;;;;;3.80;2.30;;;;;22.00;99305.00;;;;2049763;28;20306;-57
2024/04/02 04:40:26;;;;;;;4.70;2.00;;;;;22.00;99314.00;;;;2042153;28;20474;-56
2024/04/02 04:41:27;;;;;;;2.83;1.80;;;;;22.00;99310.00;;;;2048061;28;20240;-58
2024/04/02 04:42:27;;;;;;;3.50;2.00;;;;;22.00;99312.00;;;;2051444;28;20231;-57
2024/04/02 04:43:28;;;;;;;3.57;2.00;;;;;22.00;99175.00;;;;2051622;28;20247;-57
2024/04/02 04:44:28;;;;;;;3.70;1.97;;;;;22.00;99310.00;;;;2048692;28;20611;-56
2024/04/02 04:45:28;;;;;;;3.63;2.03;;;;;22.00;99318.00;;;;2049397;28;20387;-57
2024/04/02 04:46:29;;;;;;;3.50;2.07;;;;;22.00;99311.00;;;;2047519;28;20231;-57
2024/04/02 04:47:29;;;;;;;3.27;1.80;;;;;22.00;99323.00;;;;2051588;28;20227;-58
2024/04/02 04:48:30;;;;;;;3.70;1.70;;;;;22.00;99319.00;;;;2051386;28;20282;-57
2024/04/02 04:49:30;;;;;;;3.60;1.77;;;;;22.00;99327.00;;;;2046443;28;20232;-57
2024/04/02 04:50:30;;;;;;;3.17;1.90;;;;;22.00;99317.00;;;;2040537;28;20219;-58
2024/04/02 04:51:31;;;;;;;3.30;1.73;;;;;22.00;99327.00;;;;2050558;28;20355;-56
2024/04/02 04:52:31;;;;;;;6.50;1.80;;;;;22.00;99328.00;;;;2045027;28;20220;-57
2024/04/02 04:53:32;;;;;;;4.03;2.10;;;;;22.00;99326.00;;;;2048607;28;20247;-57
2024/04/02 04:54:32;;;;;;;3.10;1.60;;;;;22.00;99332.00;;;;2049116;28;20263;-58
2024/04/02 04:55:33;;;;;;;3.47;2.10;;;;;22.00;99328.00;;;;2040853;28;20576;-58
2024/04/02 04:56:33;;;;;;;3.77;2.23;;;;;22.00;99323.00;;;;2051233;28;20216;-56
2024/04/02 04:57:33;;;;;;;3.17;1.63;;;;;22.00;99328.00;;;;2051577;28;20817;-57
2024/04/02 04:58:34;;;;;;;4.00;2.00;;;;;22.00;99310.00;;;;2048373;28;20231;-57
2024/04/02 04:59:34;;;;;;;3.70;1.87;;;;;22.00;99326.00;;;;2044231;28;20923;-56
2024/04/02 05:00:35;;;;;;;3.50;1.53;;;;;22.00;99330.00;;;;2035374;28;20230;-56